KJES

Jesup-Wayne County Airport

Jesup, Georgia, USA
METAR KJES 191257Z AUTO 00000KT 10SM CLR 27/23 A3006 RMK AO2
Observed Flight Rules
Aug-19 @ 12:57 UTC (3 hours ago) Visual Flight Rules
Visibility Clouds
10 miles
  • Clear skies
Temperatures Readings
Current 27°C / 81°F
Dewpoint 23°C / 73°F
Humidity 79%
Altimeter 30.06" Hg
Pressure 1018 hPa
Elevation 33
METAR KJES 191257Z AUTO 00000KT 10SM CLR 27/23 A3006 RMK AO2
Observed Flight Rules
Aug-19 @ 12:57 UTC
(3 hours ago)
VFR
Clouds
  • Clear skies
Temperature Dewpoint
27°C / 81°F 23°C / 73°F
Humidity Altimeter Pressure
79% 30.06" Hg 1018 hPa